sensor_id;sensor_type;location;lat;lon;timestamp;P1;durP1;ratioP1;P2;durP2;ratioP2
36817;SDS011;22761;51.542;16.450;2024-02-16T00:00:14;22.50;;;14.00;;
36817;SDS011;22761;51.542;16.450;2024-02-16T00:03:04;23.20;;;15.70;;
36817;SDS011;22761;51.542;16.450;2024-02-16T00:05:33;20.00;;;13.70;;
36817;SDS011;22761;51.542;16.450;2024-02-16T00:08:01;18.10;;;12.50;;
36817;SDS011;22761;51.542;16.450;2024-02-16T00:10:31;23.20;;;15.90;;
36817;SDS011;22761;51.542;16.450;2024-02-16T00:12:59;19.20;;;13.80;;
36817;SDS011;22761;51.542;16.450;2024-02-16T00:15:27;18.20;;;12.50;;
36817;SDS011;22761;51.542;16.450;2024-02-16T00:17:55;18.80;;;11.40;;
36817;SDS011;22761;51.542;16.450;2024-02-16T00:20:24;21.90;;;12.20;;
36817;SDS011;22761;51.542;16.450;2024-02-16T00:22:52;17.00;;;11.30;;
36817;SDS011;22761;51.542;16.450;2024-02-16T00:25:21;25.70;;;16.80;;
36817;SDS011;22761;51.542;16.450;2024-02-16T00:27:49;33.30;;;19.30;;
36817;SDS011;22761;51.542;16.450;2024-02-16T00:30:21;22.00;;;13.60;;
36817;SDS011;22761;51.542;16.450;2024-02-16T00:32:50;20.30;;;12.40;;
36817;SDS011;22761;51.542;16.450;2024-02-16T00:35:21;19.60;;;11.60;;
36817;SDS011;22761;51.542;16.450;2024-02-16T00:37:49;24.10;;;13.10;;
36817;SDS011;22761;51.542;16.450;2024-02-16T00:40:17;19.00;;;12.60;;
36817;SDS011;22761;51.542;16.450;2024-02-16T00:42:45;18.40;;;10.70;;
36817;SDS011;22761;51.542;16.450;2024-02-16T00:45:14;20.60;;;13.30;;
36817;SDS011;22761;51.542;16.450;2024-02-16T00:47:42;20.10;;;13.20;;
36817;SDS011;22761;51.542;16.450;2024-02-16T00:50:10;22.70;;;14.20;;
36817;SDS011;22761;51.542;16.450;2024-02-16T00:52:39;22.90;;;14.80;;
36817;SDS011;22761;51.542;16.450;2024-02-16T00:55:08;18.20;;;11.90;;
36817;SDS011;22761;51.542;16.450;2024-02-16T00:57:38;20.20;;;13.00;;
36817;SDS011;22761;51.542;16.450;2024-02-16T01:00:06;26.80;;;17.80;;
36817;SDS011;22761;51.542;16.450;2024-02-16T01:02:37;25.20;;;17.50;;
36817;SDS011;22761;51.542;16.450;2024-02-16T01:05:06;23.10;;;15.40;;
36817;SDS011;22761;51.542;16.450;2024-02-16T01:07:34;21.00;;;14.50;;
36817;SDS011;22761;51.542;16.450;2024-02-16T01:10:03;27.10;;;18.70;;
36817;SDS011;22761;51.542;16.450;2024-02-16T01:12:32;24.20;;;17.20;;
36817;SDS011;22761;51.542;16.450;2024-02-16T01:15:00;23.40;;;14.70;;
36817;SDS011;22761;51.542;16.450;2024-02-16T01:17:29;21.40;;;14.00;;
36817;SDS011;22761;51.542;16.450;2024-02-16T01:19:58;22.90;;;15.60;;
36817;SDS011;22761;51.542;16.450;2024-02-16T01:22:27;26.10;;;18.20;;
36817;SDS011;22761;51.542;16.450;2024-02-16T01:24:57;25.30;;;16.40;;
36817;SDS011;22761;51.542;16.450;2024-02-16T01:27:25;21.30;;;13.80;;
36817;SDS011;22761;51.542;16.450;2024-02-16T01:29:56;22.80;;;13.40;;
36817;SDS011;22761;51.542;16.450;2024-02-16T01:32:24;20.10;;;13.40;;
36817;SDS011;22761;51.542;16.450;2024-02-16T01:34:53;19.90;;;13.10;;
36817;SDS011;22761;51.542;16.450;2024-02-16T01:37:21;18.80;;;12.70;;
36817;SDS011;22761;51.542;16.450;2024-02-16T01:39:50;19.70;;;12.60;;
36817;SDS011;22761;51.542;16.450;2024-02-16T01:42:18;23.70;;;13.70;;
36817;SDS011;22761;51.542;16.450;2024-02-16T01:44:46;20.40;;;13.70;;
36817;SDS011;22761;51.542;16.450;2024-02-16T01:47:15;21.30;;;14.40;;
36817;SDS011;22761;51.542;16.450;2024-02-16T01:49:44;22.20;;;14.50;;
36817;SDS011;22761;51.542;16.450;2024-02-16T01:52:13;33.70;;;17.40;;
36817;SDS011;22761;51.542;16.450;2024-02-16T01:54:41;27.30;;;15.20;;
36817;SDS011;22761;51.542;16.450;2024-02-16T01:57:10;21.10;;;14.40;;
36817;SDS011;22761;51.542;16.450;2024-02-16T02:02:08;26.50;;;16.40;;
36817;SDS011;22761;51.542;16.450;2024-02-16T02:04:37;23.40;;;14.20;;
36817;SDS011;22761;51.542;16.450;2024-02-16T02:07:12;23.00;;;14.80;;
36817;SDS011;22761;51.542;16.450;2024-02-16T02:09:41;23.10;;;14.40;;
36817;SDS011;22761;51.542;16.450;2024-02-16T02:12:10;21.90;;;14.40;;
36817;SDS011;22761;51.542;16.450;2024-02-16T02:14:38;22.20;;;14.80;;
36817;SDS011;22761;51.542;16.450;2024-02-16T02:17:07;24.20;;;15.20;;
36817;SDS011;22761;51.542;16.450;2024-02-16T02:19:35;23.60;;;14.90;;
36817;SDS011;22761;51.542;16.450;2024-02-16T02:22:03;23.10;;;15.50;;
36817;SDS011;22761;51.542;16.450;2024-02-16T02:24:32;24.50;;;15.80;;
36817;SDS011;22761;51.542;16.450;2024-02-16T02:27:00;24.40;;;15.20;;
36817;SDS011;22761;51.542;16.450;2024-02-16T02:29:29;19.40;;;13.90;;
36817;SDS011;22761;51.542;16.450;2024-02-16T02:31:57;23.30;;;14.80;;
36817;SDS011;22761;51.542;16.450;2024-02-16T02:34:26;27.00;;;16.20;;
36817;SDS011;22761;51.542;16.450;2024-02-16T02:36:54;34.70;;;21.30;;
36817;SDS011;22761;51.542;16.450;2024-02-16T02:39:23;43.60;;;24.10;;
36817;SDS011;22761;51.542;16.450;2024-02-16T02:41:51;54.10;;;28.90;;
36817;SDS011;22761;51.542;16.450;2024-02-16T02:44:19;45.00;;;24.40;;
36817;SDS011;22761;51.542;16.450;2024-02-16T02:46:48;41.70;;;22.70;;
36817;SDS011;22761;51.542;16.450;2024-02-16T02:49:16;30.70;;;17.90;;
36817;SDS011;22761;51.542;16.450;2024-02-16T02:51:44;25.60;;;16.10;;
36817;SDS011;22761;51.542;16.450;2024-02-16T02:54:13;17.20;;;12.50;;
36817;SDS011;22761;51.542;16.450;2024-02-16T02:56:41;17.40;;;11.90;;
36817;SDS011;22761;51.542;16.450;2024-02-16T02:59:10;18.60;;;11.90;;
36817;SDS011;22761;51.542;16.450;2024-02-16T03:01:38;18.40;;;12.40;;
36817;SDS011;22761;51.542;16.450;2024-02-16T03:04:07;17.60;;;12.20;;
36817;SDS011;22761;51.542;16.450;2024-02-16T03:06:35;20.20;;;12.60;;
36817;SDS011;22761;51.542;16.450;2024-02-16T03:09:04;18.30;;;11.30;;
36817;SDS011;22761;51.542;16.450;2024-02-16T03:11:33;19.70;;;12.30;;
36817;SDS011;22761;51.542;16.450;2024-02-16T03:14:01;18.70;;;12.20;;
36817;SDS011;22761;51.542;16.450;2024-02-16T03:16:29;18.60;;;12.70;;
36817;SDS011;22761;51.542;16.450;2024-02-16T03:18:58;21.70;;;12.30;;
36817;SDS011;22761;51.542;16.450;2024-02-16T03:21:26;18.30;;;12.50;;
36817;SDS011;22761;51.542;16.450;2024-02-16T03:23:55;23.20;;;14.40;;
36817;SDS011;22761;51.542;16.450;2024-02-16T03:26:23;19.00;;;13.10;;
36817;SDS011;22761;51.542;16.450;2024-02-16T03:28:51;17.50;;;12.20;;
36817;SDS011;22761;51.542;16.450;2024-02-16T03:31:21;20.20;;;11.50;;
36817;SDS011;22761;51.542;16.450;2024-02-16T03:33:52;20.40;;;13.40;;
36817;SDS011;22761;51.542;16.450;2024-02-16T03:36:21;16.90;;;12.40;;
36817;SDS011;22761;51.542;16.450;2024-02-16T03:38:49;20.70;;;12.80;;
36817;SDS011;22761;51.542;16.450;2024-02-16T03:41:19;19.80;;;13.80;;
36817;SDS011;22761;51.542;16.450;2024-02-16T03:43:49;20.40;;;14.00;;
36817;SDS011;22761;51.542;16.450;2024-02-16T03:46:18;19.30;;;13.10;;
36817;SDS011;22761;51.542;16.450;2024-02-16T03:48:46;17.60;;;12.20;;
36817;SDS011;22761;51.542;16.450;2024-02-16T03:51:15;16.80;;;11.20;;
36817;SDS011;22761;51.542;16.450;2024-02-16T03:53:43;17.60;;;10.50;;
36817;SDS011;22761;51.542;16.450;2024-02-16T03:56:18;14.20;;;9.40;;
36817;SDS011;22761;51.542;16.450;2024-02-16T03:58:46;13.80;;;8.70;;
36817;SDS011;22761;51.542;16.450;2024-02-16T04:01:15;13.20;;;9.00;;
36817;SDS011;22761;51.542;16.450;2024-02-16T04:03:43;13.70;;;9.30;;
36817;SDS011;22761;51.542;16.450;2024-02-16T04:06:12;13.10;;;8.70;;
36817;SDS011;22761;51.542;16.450;2024-02-16T04:08:40;16.60;;;10.10;;
36817;SDS011;22761;51.542;16.450;2024-02-16T04:11:10;13.80;;;8.70;;
36817;SDS011;22761;51.542;16.450;2024-02-16T04:13:40;19.50;;;10.50;;
36817;SDS011;22761;51.542;16.450;2024-02-16T04:16:09;15.10;;;9.60;;
36817;SDS011;22761;51.542;16.450;2024-02-16T04:18:37;15.90;;;10.50;;
36817;SDS011;22761;51.542;16.450;2024-02-16T04:21:06;14.20;;;9.90;;
36817;SDS011;22761;51.542;16.450;2024-02-16T04:23:34;14.60;;;9.10;;
36817;SDS011;22761;51.542;16.450;2024-02-16T04:26:02;9.70;;;6.60;;
36817;SDS011;22761;51.542;16.450;2024-02-16T04:28:30;11.30;;;6.60;;
36817;SDS011;22761;51.542;16.450;2024-02-16T04:30:59;9.60;;;6.60;;
36817;SDS011;22761;51.542;16.450;2024-02-16T04:33:27;12.80;;;9.40;;
36817;SDS011;22761;51.542;16.450;2024-02-16T04:35:55;13.40;;;9.50;;
36817;SDS011;22761;51.542;16.450;2024-02-16T04:38:24;14.20;;;9.80;;
36817;SDS011;22761;51.542;16.450;2024-02-16T04:40:52;14.60;;;9.60;;
36817;SDS011;22761;51.542;16.450;2024-02-16T04:43:20;15.20;;;10.30;;
36817;SDS011;22761;51.542;16.450;2024-02-16T04:45:49;15.50;;;10.00;;
36817;SDS011;22761;51.542;16.450;2024-02-16T04:48:17;16.30;;;9.50;;
36817;SDS011;22761;51.542;16.450;2024-02-16T04:50:45;15.10;;;9.50;;
36817;SDS011;22761;51.542;16.450;2024-02-16T04:53:14;15.20;;;9.70;;
36817;SDS011;22761;51.542;16.450;2024-02-16T04:55:42;14.50;;;9.50;;
36817;SDS011;22761;51.542;16.450;2024-02-16T04:58:10;13.50;;;9.50;;
36817;SDS011;22761;51.542;16.450;2024-02-16T05:00:39;13.60;;;9.00;;
36817;SDS011;22761;51.542;16.450;2024-02-16T05:03:08;18.40;;;12.30;;
36817;SDS011;22761;51.542;16.450;2024-02-16T05:05:36;19.00;;;12.50;;
36817;SDS011;22761;51.542;16.450;2024-02-16T05:08:05;21.40;;;14.10;;
36817;SDS011;22761;51.542;16.450;2024-02-16T05:10:33;15.00;;;11.20;;
36817;SDS011;22761;51.542;16.450;2024-02-16T05:13:02;15.70;;;10.90;;
36817;SDS011;22761;51.542;16.450;2024-02-16T05:15:30;18.30;;;12.00;;
36817;SDS011;22761;51.542;16.450;2024-02-16T05:17:59;19.30;;;13.10;;
36817;SDS011;22761;51.542;16.450;2024-02-16T05:20:28;17.30;;;12.70;;
36817;SDS011;22761;51.542;16.450;2024-02-16T05:22:57;21.00;;;13.30;;
36817;SDS011;22761;51.542;16.450;2024-02-16T05:25:25;20.40;;;13.00;;
36817;SDS011;22761;51.542;16.450;2024-02-16T05:27:53;19.20;;;12.70;;
36817;SDS011;22761;51.542;16.450;2024-02-16T05:30:21;20.00;;;12.10;;
36817;SDS011;22761;51.542;16.450;2024-02-16T05:32:50;18.70;;;12.30;;
36817;SDS011;22761;51.542;16.450;2024-02-16T05:35:21;19.20;;;13.70;;
36817;SDS011;22761;51.542;16.450;2024-02-16T05:37:49;25.80;;;16.20;;
36817;SDS011;22761;51.542;16.450;2024-02-16T05:40:19;32.80;;;21.40;;
36817;SDS011;22761;51.542;16.450;2024-02-16T05:42:52;60.60;;;39.60;;
36817;SDS011;22761;51.542;16.450;2024-02-16T05:45:21;80.60;;;52.90;;
36817;SDS011;22761;51.542;16.450;2024-02-16T05:47:50;148.60;;;82.90;;
36817;SDS011;22761;51.542;16.450;2024-02-16T05:50:20;65.20;;;39.40;;
36817;SDS011;22761;51.542;16.450;2024-02-16T05:52:49;146.30;;;83.90;;
36817;SDS011;22761;51.542;16.450;2024-02-16T05:55:18;86.10;;;54.10;;
36817;SDS011;22761;51.542;16.450;2024-02-16T05:57:49;21.00;;;15.30;;
36817;SDS011;22761;51.542;16.450;2024-02-16T06:00:17;16.60;;;11.10;;
36817;SDS011;22761;51.542;16.450;2024-02-16T06:02:49;14.90;;;10.50;;
36817;SDS011;22761;51.542;16.450;2024-02-16T06:05:18;14.00;;;9.60;;
36817;SDS011;22761;51.542;16.450;2024-02-16T06:07:48;14.70;;;9.90;;
36817;SDS011;22761;51.542;16.450;2024-02-16T06:10:16;48.00;;;31.00;;
36817;SDS011;22761;51.542;16.450;2024-02-16T06:12:46;24.70;;;17.30;;
36817;SDS011;22761;51.542;16.450;2024-02-16T06:15:14;43.40;;;29.70;;
36817;SDS011;22761;51.542;16.450;2024-02-16T06:17:43;29.00;;;19.30;;
36817;SDS011;22761;51.542;16.450;2024-02-16T06:20:11;23.30;;;16.80;;
36817;SDS011;22761;51.542;16.450;2024-02-16T06:22:43;22.50;;;15.40;;
36817;SDS011;22761;51.542;16.450;2024-02-16T06:25:12;20.40;;;14.10;;
36817;SDS011;22761;51.542;16.450;2024-02-16T06:27:40;15.60;;;10.80;;
36817;SDS011;22761;51.542;16.450;2024-02-16T06:30:09;15.20;;;9.30;;
36817;SDS011;22761;51.542;16.450;2024-02-16T06:32:41;27.20;;;19.00;;
36817;SDS011;22761;51.542;16.450;2024-02-16T06:35:10;21.80;;;13.20;;
36817;SDS011;22761;51.542;16.450;2024-02-16T06:37:39;26.50;;;13.50;;
36817;SDS011;22761;51.542;16.450;2024-02-16T06:40:08;24.60;;;13.60;;
36817;SDS011;22761;51.542;16.450;2024-02-16T06:42:39;22.80;;;13.00;;
36817;SDS011;22761;51.542;16.450;2024-02-16T06:45:08;22.90;;;12.50;;
36817;SDS011;22761;51.542;16.450;2024-02-16T06:47:36;26.60;;;15.40;;
36817;SDS011;22761;51.542;16.450;2024-02-16T06:50:05;26.30;;;16.40;;
36817;SDS011;22761;51.542;16.450;2024-02-16T06:52:35;30.00;;;20.40;;
36817;SDS011;22761;51.542;16.450;2024-02-16T06:55:04;26.10;;;17.30;;
36817;SDS011;22761;51.542;16.450;2024-02-16T06:57:32;24.70;;;16.70;;
36817;SDS011;22761;51.542;16.450;2024-02-16T07:00:00;22.40;;;15.30;;
36817;SDS011;22761;51.542;16.450;2024-02-16T07:02:31;25.10;;;15.60;;
36817;SDS011;22761;51.542;16.450;2024-02-16T07:05:00;22.10;;;15.40;;
36817;SDS011;22761;51.542;16.450;2024-02-16T07:07:28;28.30;;;18.40;;
36817;SDS011;22761;51.542;16.450;2024-02-16T07:09:56;22.00;;;15.60;;
36817;SDS011;22761;51.542;16.450;2024-02-16T07:12:24;22.50;;;15.50;;
36817;SDS011;22761;51.542;16.450;2024-02-16T07:14:53;22.70;;;15.10;;
36817;SDS011;22761;51.542;16.450;2024-02-16T07:17:21;20.90;;;14.30;;
36817;SDS011;22761;51.542;16.450;2024-02-16T07:19:50;24.40;;;15.40;;
36817;SDS011;22761;51.542;16.450;2024-02-16T07:22:18;23.20;;;14.30;;
36817;SDS011;22761;51.542;16.450;2024-02-16T07:24:46;22.10;;;14.20;;
36817;SDS011;22761;51.542;16.450;2024-02-16T07:27:14;20.90;;;13.40;;
36817;SDS011;22761;51.542;16.450;2024-02-16T07:29:43;21.90;;;13.80;;
36817;SDS011;22761;51.542;16.450;2024-02-16T07:32:11;20.40;;;12.90;;
36817;SDS011;22761;51.542;16.450;2024-02-16T07:34:40;21.60;;;13.70;;
36817;SDS011;22761;51.542;16.450;2024-02-16T07:37:08;20.00;;;13.50;;
36817;SDS011;22761;51.542;16.450;2024-02-16T07:39:36;16.90;;;12.30;;
36817;SDS011;22761;51.542;16.450;2024-02-16T07:42:05;18.30;;;12.30;;
36817;SDS011;22761;51.542;16.450;2024-02-16T07:44:34;18.60;;;12.60;;
36817;SDS011;22761;51.542;16.450;2024-02-16T07:47:02;19.40;;;13.00;;
36817;SDS011;22761;51.542;16.450;2024-02-16T07:49:31;21.10;;;12.80;;
36817;SDS011;22761;51.542;16.450;2024-02-16T07:52:00;20.20;;;12.50;;
36817;SDS011;22761;51.542;16.450;2024-02-16T07:54:28;20.90;;;13.50;;
36817;SDS011;22761;51.542;16.450;2024-02-16T07:56:57;17.30;;;11.50;;
36817;SDS011;22761;51.542;16.450;2024-02-16T07:59:28;19.10;;;12.50;;
36817;SDS011;22761;51.542;16.450;2024-02-16T08:01:57;21.60;;;12.10;;
36817;SDS011;22761;51.542;16.450;2024-02-16T08:04:25;17.00;;;11.80;;
36817;SDS011;22761;51.542;16.450;2024-02-16T08:06:53;18.10;;;12.20;;
36817;SDS011;22761;51.542;16.450;2024-02-16T08:09:21;17.50;;;11.70;;
36817;SDS011;22761;51.542;16.450;2024-02-16T08:11:50;17.10;;;11.90;;
36817;SDS011;22761;51.542;16.450;2024-02-16T08:14:18;19.40;;;11.90;;
36817;SDS011;22761;51.542;16.450;2024-02-16T08:16:46;20.60;;;12.90;;
36817;SDS011;22761;51.542;16.450;2024-02-16T08:19:15;21.30;;;12.60;;
36817;SDS011;22761;51.542;16.450;2024-02-16T08:21:44;17.30;;;12.10;;
36817;SDS011;22761;51.542;16.450;2024-02-16T08:24:12;17.70;;;11.10;;
36817;SDS011;22761;51.542;16.450;2024-02-16T08:26:41;19.90;;;11.80;;
36817;SDS011;22761;51.542;16.450;2024-02-16T08:29:09;19.20;;;12.50;;
36817;SDS011;22761;51.542;16.450;2024-02-16T08:31:37;18.00;;;11.60;;
36817;SDS011;22761;51.542;16.450;2024-02-16T08:34:06;15.60;;;11.50;;
36817;SDS011;22761;51.542;16.450;2024-02-16T08:36:35;17.60;;;12.60;;
36817;SDS011;22761;51.542;16.450;2024-02-16T08:39:05;18.80;;;11.30;;
36817;SDS011;22761;51.542;16.450;2024-02-16T08:41:34;21.60;;;13.30;;
36817;SDS011;22761;51.542;16.450;2024-02-16T08:44:02;61.90;;;14.30;;
36817;SDS011;22761;51.542;16.450;2024-02-16T08:46:31;17.00;;;11.30;;
36817;SDS011;22761;51.542;16.450;2024-02-16T08:49:00;16.30;;;10.30;;
36817;SDS011;22761;51.542;16.450;2024-02-16T08:51:28;16.00;;;9.80;;
36817;SDS011;22761;51.542;16.450;2024-02-16T08:53:56;14.30;;;9.60;;
36817;SDS011;22761;51.542;16.450;2024-02-16T08:56:24;14.20;;;9.90;;
36817;SDS011;22761;51.542;16.450;2024-02-16T08:58:53;14.40;;;9.40;;
36817;SDS011;22761;51.542;16.450;2024-02-16T09:01:31;16.60;;;9.50;;
36817;SDS011;22761;51.542;16.450;2024-02-16T09:04:00;15.10;;;9.10;;
36817;SDS011;22761;51.542;16.450;2024-02-16T09:06:29;13.00;;;9.00;;
36817;SDS011;22761;51.542;16.450;2024-02-16T09:08:58;14.50;;;10.00;;
36817;SDS011;22761;51.542;16.450;2024-02-16T09:11:26;16.20;;;9.60;;
36817;SDS011;22761;51.542;16.450;2024-02-16T09:13:56;13.40;;;8.70;;
36817;SDS011;22761;51.542;16.450;2024-02-16T09:16:24;13.60;;;9.40;;
36817;SDS011;22761;51.542;16.450;2024-02-16T09:18:52;13.00;;;8.60;;
36817;SDS011;22761;51.542;16.450;2024-02-16T09:21:21;13.40;;;8.30;;
36817;SDS011;22761;51.542;16.450;2024-02-16T09:23:52;13.50;;;9.00;;
36817;SDS011;22761;51.542;16.450;2024-02-16T09:26:20;12.90;;;8.70;;
36817;SDS011;22761;51.542;16.450;2024-02-16T09:28:50;13.50;;;8.10;;
36817;SDS011;22761;51.542;16.450;2024-02-16T09:31:18;11.60;;;8.10;;
36817;SDS011;22761;51.542;16.450;2024-02-16T09:33:46;13.00;;;8.60;;
36817;SDS011;22761;51.542;16.450;2024-02-16T09:36:15;10.80;;;7.80;;
36817;SDS011;22761;51.542;16.450;2024-02-16T09:38:43;10.20;;;7.60;;
36817;SDS011;22761;51.542;16.450;2024-02-16T09:41:12;13.00;;;8.20;;
36817;SDS011;22761;51.542;16.450;2024-02-16T09:43:41;11.70;;;8.40;;
36817;SDS011;22761;51.542;16.450;2024-02-16T09:46:09;12.30;;;8.30;;
36817;SDS011;22761;51.542;16.450;2024-02-16T09:48:39;14.00;;;8.80;;
36817;SDS011;22761;51.542;16.450;2024-02-16T09:51:08;12.60;;;8.60;;
36817;SDS011;22761;51.542;16.450;2024-02-16T09:53:37;15.40;;;9.50;;
36817;SDS011;22761;51.542;16.450;2024-02-16T09:56:05;15.70;;;10.20;;
36817;SDS011;22761;51.542;16.450;2024-02-16T09:58:36;15.90;;;9.70;;
36817;SDS011;22761;51.542;16.450;2024-02-16T10:01:05;14.00;;;8.20;;
36817;SDS011;22761;51.542;16.450;2024-02-16T10:03:33;13.20;;;8.90;;
36817;SDS011;22761;51.542;16.450;2024-02-16T10:06:12;14.30;;;8.80;;
36817;SDS011;22761;51.542;16.450;2024-02-16T10:09:21;13.90;;;8.30;;
36817;SDS011;22761;51.542;16.450;2024-02-16T10:11:36;12.80;;;7.50;;
36817;SDS011;22761;51.542;16.450;2024-02-16T10:14:07;12.40;;;8.00;;
36817;SDS011;22761;51.542;16.450;2024-02-16T10:16:37;13.10;;;8.00;;
36817;SDS011;22761;51.542;16.450;2024-02-16T10:19:08;12.10;;;8.90;;
36817;SDS011;22761;51.542;16.450;2024-02-16T10:21:44;13.20;;;8.60;;
36817;SDS011;22761;51.542;16.450;2024-02-16T10:24:12;11.60;;;8.00;;
36817;SDS011;22761;51.542;16.450;2024-02-16T10:26:43;9.70;;;7.70;;
36817;SDS011;22761;51.542;16.450;2024-02-16T10:29:11;10.80;;;7.10;;
36817;SDS011;22761;51.542;16.450;2024-02-16T10:31:41;9.70;;;6.40;;
36817;SDS011;22761;51.542;16.450;2024-02-16T10:34:09;11.20;;;7.80;;
36817;SDS011;22761;51.542;16.450;2024-02-16T10:36:39;10.00;;;6.80;;
36817;SDS011;22761;51.542;16.450;2024-02-16T10:39:09;9.40;;;7.50;;
36817;SDS011;22761;51.542;16.450;2024-02-16T10:41:40;9.30;;;6.70;;
36817;SDS011;22761;51.542;16.450;2024-02-16T10:44:09;10.80;;;7.00;;
36817;SDS011;22761;51.542;16.450;2024-02-16T10:46:38;10.60;;;6.70;;
36817;SDS011;22761;51.542;16.450;2024-02-16T10:49:06;9.80;;;6.60;;
36817;SDS011;22761;51.542;16.450;2024-02-16T10:51:37;10.50;;;6.70;;
36817;SDS011;22761;51.542;16.450;2024-02-16T10:54:07;7.60;;;5.80;;
36817;SDS011;22761;51.542;16.450;2024-02-16T10:56:36;9.30;;;6.60;;
36817;SDS011;22761;51.542;16.450;2024-02-16T10:59:07;10.60;;;6.20;;
36817;SDS011;22761;51.542;16.450;2024-02-16T11:01:45;8.80;;;6.70;;
36817;SDS011;22761;51.542;16.450;2024-02-16T11:04:15;9.00;;;6.40;;
36817;SDS011;22761;51.542;16.450;2024-02-16T11:06:54;8.40;;;6.20;;
36817;SDS011;22761;51.542;16.450;2024-02-16T11:09:28;7.80;;;6.20;;
36817;SDS011;22761;51.542;16.450;2024-02-16T11:14:36;8.60;;;6.20;;
36817;SDS011;22761;51.542;16.450;2024-02-16T11:17:12;9.70;;;6.40;;
36817;SDS011;22761;51.542;16.450;2024-02-16T11:19:42;9.30;;;6.90;;
36817;SDS011;22761;51.542;16.450;2024-02-16T11:22:14;8.30;;;6.80;;
36817;SDS011;22761;51.542;16.450;2024-02-16T11:24:44;8.80;;;6.50;;
36817;SDS011;22761;51.542;16.450;2024-02-16T11:29:48;8.70;;;6.40;;
36817;SDS011;22761;51.542;16.450;2024-02-16T11:32:18;9.40;;;6.60;;
36817;SDS011;22761;51.542;16.450;2024-02-16T11:34:47;10.00;;;6.00;;
36817;SDS011;22761;51.542;16.450;2024-02-16T11:37:16;7.50;;;5.60;;
36817;SDS011;22761;51.542;16.450;2024-02-16T11:39:45;7.40;;;5.70;;
36817;SDS011;22761;51.542;16.450;2024-02-16T11:42:18;7.30;;;5.60;;
36817;SDS011;22761;51.542;16.450;2024-02-16T11:44:51;7.60;;;5.90;;
36817;SDS011;22761;51.542;16.450;2024-02-16T11:47:22;8.90;;;5.90;;
36817;SDS011;22761;51.542;16.450;2024-02-16T11:52:28;9.20;;;6.00;;
36817;SDS011;22761;51.542;16.450;2024-02-16T11:54:57;7.80;;;5.30;;
36817;SDS011;22761;51.542;16.450;2024-02-16T11:57:29;6.90;;;5.20;;
36817;SDS011;22761;51.542;16.450;2024-02-16T11:59:58;7.70;;;5.50;;
36817;SDS011;22761;51.542;16.450;2024-02-16T12:02:27;9.80;;;5.80;;
36817;SDS011;22761;51.542;16.450;2024-02-16T12:04:59;8.80;;;6.10;;
36817;SDS011;22761;51.542;16.450;2024-02-16T12:07:31;10.70;;;6.00;;
36817;SDS011;22761;51.542;16.450;2024-02-16T12:10:01;6.40;;;5.00;;
36817;SDS011;22761;51.542;16.450;2024-02-16T12:12:33;6.80;;;5.40;;
36817;SDS011;22761;51.542;16.450;2024-02-16T12:15:04;7.30;;;5.80;;
36817;SDS011;22761;51.542;16.450;2024-02-16T12:17:34;6.20;;;5.50;;
36817;SDS011;22761;51.542;16.450;2024-02-16T12:20:02;8.10;;;5.50;;
36817;SDS011;22761;51.542;16.450;2024-02-16T12:22:38;10.50;;;5.90;;
36817;SDS011;22761;51.542;16.450;2024-02-16T12:25:06;10.70;;;6.10;;
36817;SDS011;22761;51.542;16.450;2024-02-16T12:27:35;10.40;;;6.10;;
36817;SDS011;22761;51.542;16.450;2024-02-16T12:30:04;7.40;;;5.40;;
36817;SDS011;22761;51.542;16.450;2024-02-16T12:32:32;7.10;;;5.70;;
36817;SDS011;22761;51.542;16.450;2024-02-16T12:35:01;9.00;;;6.00;;
36817;SDS011;22761;51.542;16.450;2024-02-16T12:37:31;8.10;;;6.10;;
36817;SDS011;22761;51.542;16.450;2024-02-16T12:39:59;8.30;;;6.10;;
36817;SDS011;22761;51.542;16.450;2024-02-16T12:42:29;6.40;;;5.40;;
36817;SDS011;22761;51.542;16.450;2024-02-16T12:44:57;8.80;;;6.10;;
36817;SDS011;22761;51.542;16.450;2024-02-16T12:47:25;6.20;;;5.60;;
36817;SDS011;22761;51.542;16.450;2024-02-16T12:49:55;6.20;;;5.60;;
36817;SDS011;22761;51.542;16.450;2024-02-16T12:52:24;6.80;;;5.30;;
36817;SDS011;22761;51.542;16.450;2024-02-16T12:54:52;8.30;;;5.50;;
36817;SDS011;22761;51.542;16.450;2024-02-16T12:57:22;7.10;;;5.50;;
36817;SDS011;22761;51.542;16.450;2024-02-16T12:59:50;6.50;;;5.50;;
36817;SDS011;22761;51.542;16.450;2024-02-16T13:02:18;7.00;;;4.70;;
36817;SDS011;22761;51.542;16.450;2024-02-16T13:04:47;7.20;;;5.40;;
36817;SDS011;22761;51.542;16.450;2024-02-16T13:07:15;10.70;;;5.40;;
36817;SDS011;22761;51.542;16.450;2024-02-16T13:09:43;7.70;;;4.90;;
36817;SDS011;22761;51.542;16.450;2024-02-16T13:12:13;8.00;;;4.40;;
36817;SDS011;22761;51.542;16.450;2024-02-16T13:14:45;6.90;;;4.90;;
36817;SDS011;22761;51.542;16.450;2024-02-16T13:17:13;6.90;;;4.60;;
36817;SDS011;22761;51.542;16.450;2024-02-16T13:19:41;5.70;;;4.60;;
36817;SDS011;22761;51.542;16.450;2024-02-16T13:22:10;6.90;;;4.40;;
36817;SDS011;22761;51.542;16.450;2024-02-16T13:24:38;8.30;;;4.60;;
36817;SDS011;22761;51.542;16.450;2024-02-16T13:27:07;7.60;;;4.90;;
36817;SDS011;22761;51.542;16.450;2024-02-16T13:29:35;7.50;;;4.20;;
36817;SDS011;22761;51.542;16.450;2024-02-16T13:32:05;7.90;;;4.80;;
36817;SDS011;22761;51.542;16.450;2024-02-16T13:34:33;6.60;;;4.00;;
36817;SDS011;22761;51.542;16.450;2024-02-16T13:37:01;7.20;;;4.80;;
36817;SDS011;22761;51.542;16.450;2024-02-16T13:39:29;6.90;;;4.70;;
36817;SDS011;22761;51.542;16.450;2024-02-16T13:41:58;6.70;;;4.00;;
36817;SDS011;22761;51.542;16.450;2024-02-16T13:44:26;5.30;;;4.30;;
36817;SDS011;22761;51.542;16.450;2024-02-16T13:46:55;7.30;;;4.10;;
36817;SDS011;22761;51.542;16.450;2024-02-16T13:49:23;6.50;;;5.20;;
36817;SDS011;22761;51.542;16.450;2024-02-16T13:51:51;6.10;;;4.60;;
36817;SDS011;22761;51.542;16.450;2024-02-16T13:54:20;7.60;;;4.90;;
36817;SDS011;22761;51.542;16.450;2024-02-16T13:59:18;9.00;;;5.50;;
36817;SDS011;22761;51.542;16.450;2024-02-16T14:01:46;10.50;;;5.30;;
36817;SDS011;22761;51.542;16.450;2024-02-16T14:04:16;8.00;;;5.80;;
36817;SDS011;22761;51.542;16.450;2024-02-16T14:06:44;9.40;;;5.80;;
36817;SDS011;22761;51.542;16.450;2024-02-16T14:09:13;10.40;;;6.20;;
36817;SDS011;22761;51.542;16.450;2024-02-16T14:11:54;10.00;;;5.80;;
36817;SDS011;22761;51.542;16.450;2024-02-16T14:17:04;10.70;;;6.80;;
36817;SDS011;22761;51.542;16.450;2024-02-16T14:19:33;11.10;;;7.80;;
36817;SDS011;22761;51.542;16.450;2024-02-16T14:22:05;10.00;;;6.60;;
36817;SDS011;22761;51.542;16.450;2024-02-16T14:24:35;9.60;;;7.00;;
36817;SDS011;22761;51.542;16.450;2024-02-16T14:27:04;10.60;;;6.50;;
36817;SDS011;22761;51.542;16.450;2024-02-16T14:29:33;8.90;;;5.90;;
36817;SDS011;22761;51.542;16.450;2024-02-16T14:32:01;8.50;;;5.90;;
36817;SDS011;22761;51.542;16.450;2024-02-16T14:34:29;7.80;;;5.60;;
36817;SDS011;22761;51.542;16.450;2024-02-16T14:36:59;8.00;;;5.00;;
36817;SDS011;22761;51.542;16.450;2024-02-16T14:39:27;6.30;;;4.90;;
36817;SDS011;22761;51.542;16.450;2024-02-16T14:41:55;6.80;;;4.70;;
36817;SDS011;22761;51.542;16.450;2024-02-16T14:44:24;7.60;;;5.00;;